Time;durP1;ratioP1;P1;durP2;ratioP2;P2;SDS_P1;SDS_P2;PMS_P1;PMS_P2;Temp;Humidity;BMP_temperature;BMP_pressure;BME280_temperature;BME280_humidity;BME280_pressure;Samples;Min_cycle;Max_cycle;Signal;HPM_P1;HPM_P2
2023/02/06 00:00:35;;;;;;;15.35;7.90;;;;;;;-2.23;57.97;102402.03;5095347;28;20027;-70
2023/02/06 00:03:00;;;;;;;16.95;9.18;;;;;;;-2.35;57.80;102381.94;5094131;28;20031;-71
2023/02/06 00:05:26;;;;;;;14.45;7.75;;;;;;;-2.23;57.66;102407.31;5080751;27;20110;-71
2023/02/06 00:07:51;;;;;;;14.27;8.15;;;;;;;-2.21;58.06;102416.06;5098236;28;20364;-72
2023/02/06 00:10:17;;;;;;;16.90;8.20;;;;;;;-2.25;57.53;102405.56;5095147;28;20879;-71
2023/02/06 00:12:42;;;;;;;15.93;7.38;;;;;;;-2.24;57.85;102404.69;5085343;28;20031;-66
2023/02/06 00:15:08;;;;;;;17.30;8.85;;;;;;;-2.36;57.77;102381.94;5090446;28;20235;-67
2023/02/06 00:17:37;;;;;;;17.13;8.20;;;;;;;-2.23;58.20;102403.81;5106317;28;20543;-67
2023/02/06 00:20:05;;;;;;;18.02;7.68;;;;;;;-2.39;58.51;102380.19;5104610;27;20493;-67
2023/02/06 00:22:30;;;;;;;12.27;7.05;;;;;;;-2.38;58.13;102388.97;5099919;27;20474;-67
2023/02/06 00:24:56;;;;;;;17.63;8.55;;;;;;;-2.27;58.03;102418.72;5110148;27;20032;-67
2023/02/06 00:27:21;;;;;;;14.88;8.43;;;;;;;-2.32;58.14;102413.47;5109126;28;20043;-67
2023/02/06 00:29:47;;;;;;;18.02;8.65;;;;;;;-2.30;57.46;102410.81;5096957;28;20115;-66
2023/02/06 00:32:12;;;;;;;13.93;7.50;;;;;;;-2.38;58.09;102409.97;5099940;28;20035;-67
2023/02/06 00:34:38;;;;;;;13.88;7.35;;;;;;;-2.38;57.68;102405.59;5100421;27;20019;-67
2023/02/06 00:37:03;;;;;;;14.98;8.20;;;;;;;-2.35;57.99;102416.09;5093087;28;20030;-67
2023/02/06 00:39:28;;;;;;;15.15;7.82;;;;;;;-2.43;58.30;102398.59;5102583;27;20039;-67
2023/02/06 00:41:54;;;;;;;15.05;7.65;;;;;;;-2.29;57.77;102422.22;5086270;28;20042;-67
2023/02/06 00:44:21;;;;;;;15.65;8.43;;;;;;;-2.31;57.66;102424.84;5103284;28;20168;-67
2023/02/06 00:46:46;;;;;;;18.38;8.88;;;;;;;-2.41;57.82;102425.75;5094785;28;20034;-66
2023/02/06 00:49:12;;;;;;;15.40;7.75;;;;;;;-2.52;58.03;102404.75;5089241;28;20471;-67
2023/02/06 00:51:38;;;;;;;15.68;7.85;;;;;;;-2.35;58.22;102429.22;5107692;27;20019;-66
2023/02/06 00:54:04;;;;;;;16.30;7.65;;;;;;;-2.29;58.14;102443.25;5101273;28;20105;-66
2023/02/06 00:56:30;;;;;;;14.52;7.80;;;;;;;-2.40;57.87;102428.38;5090687;27;20114;-65
2023/02/06 00:58:55;;;;;;;14.50;7.60;;;;;;;-2.40;58.33;102441.50;5100360;27;20084;-67
2023/02/06 01:01:21;;;;;;;14.90;8.75;;;;;;;-2.41;58.44;102445.00;5088960;27;20903;-67
2023/02/06 01:03:46;;;;;;;17.92;8.68;;;;;;;-2.53;58.53;102428.38;5095352;28;20020;-67
2023/02/06 01:06:12;;;;;;;15.95;8.30;;;;;;;-2.48;58.32;102443.25;5106795;27;20107;-71
2023/02/06 01:08:37;;;;;;;16.05;8.40;;;;;;;-2.46;58.20;102445.88;5099141;28;20026;-72
2023/02/06 01:11:09;;;;;;;14.02;8.25;;;;;;;-2.61;58.32;102423.13;5081892;28;20031;-71
2023/02/06 01:13:35;;;;;;;16.95;7.95;;;;;;;-2.50;58.74;102446.75;5083480;28;20040;-71
2023/02/06 01:16:00;;;;;;;16.70;8.23;;;;;;;-2.50;58.63;102439.78;5093814;27;20039;-71
2023/02/06 01:18:26;;;;;;;13.32;7.55;;;;;;;-2.62;58.11;102413.50;5096457;28;20035;-71
2023/02/06 01:20:51;;;;;;;14.55;7.50;;;;;;;-2.62;57.92;102413.50;5090735;27;20032;-70
2023/02/06 01:23:17;;;;;;;17.33;8.63;;;;;;;-2.51;57.94;102427.50;5088481;28;20020;-70
2023/02/06 01:25:42;;;;;;;15.32;7.80;;;;;;;-2.61;58.02;102417.03;5093497;27;20055;-71
2023/02/06 01:28:07;;;;;;;16.52;7.97;;;;;;;-2.54;57.92;102430.13;5110243;28;20032;-71
2023/02/06 01:30:33;;;;;;;14.05;7.55;;;;;;;-2.59;57.77;102431.00;5107070;27;20036;-65
2023/02/06 01:32:58;;;;;;;12.63;7.57;;;;;;;-2.54;57.81;102439.78;5105275;28;20080;-66
2023/02/06 01:35:24;;;;;;;12.88;7.00;;;;;;;-2.50;57.90;102436.25;5095184;28;20039;-66
2023/02/06 01:37:49;;;;;;;13.75;7.60;;;;;;;-2.53;57.64;102433.63;5106401;28;20509;-65
2023/02/06 01:40:16;;;;;;;15.38;7.57;;;;;;;-2.47;57.65;102431.88;5109922;28;20058;-66
2023/02/06 01:42:42;;;;;;;14.27;7.30;;;;;;;-2.57;57.39;102413.50;5103293;27;20046;-66
2023/02/06 01:45:20;;;;;;;15.25;7.63;;;;;;;-2.50;57.47;102417.88;5097513;27;20102;-67
2023/02/06 01:47:46;;;;;;;16.77;8.15;;;;;;;-2.61;57.69;102402.13;5103702;28;20364;-66
2023/02/06 01:50:11;;;;;;;12.57;6.38;;;;;;;-2.57;57.73;102410.88;5094645;27;20540;-66
2023/02/06 01:52:37;;;;;;;15.52;8.52;;;;;;;-2.56;58.13;102412.63;5094413;28;20035;-71
2023/02/06 01:55:04;;;;;;;15.10;7.60;;;;;;;-2.60;57.41;102410.88;5093955;27;20073;-70
2023/02/06 01:57:30;;;;;;;14.70;7.20;;;;;;;-2.50;57.13;102407.38;5100855;27;20039;-71
2023/02/06 02:00:01;;;;;;;13.93;7.20;;;;;;;-2.57;57.55;102400.38;5092120;28;20028;-71
2023/02/06 02:02:28;;;;;;;14.10;7.13;;;;;;;-2.56;57.63;102403.00;5079153;28;20851;-68
2023/02/06 02:04:55;;;;;;;16.75;8.35;;;;;;;-2.54;57.41;102408.25;5097668;28;20028;-66
2023/02/06 02:07:21;;;;;;;13.27;7.55;;;;;;;-2.51;57.25;102417.00;5101324;28;20046;-67
2023/02/06 02:09:46;;;;;;;15.60;7.57;;;;;;;-2.66;57.64;102397.75;5099393;28;20036;-67
2023/02/06 02:12:12;;;;;;;11.80;7.03;;;;;;;-2.66;57.68;102401.25;5095177;28;20126;-66
2023/02/06 02:14:40;;;;;;;14.57;7.95;;;;;;;-2.66;57.63;102403.00;5103861;28;20028;-66
2023/02/06 02:17:27;;;;;;;14.13;7.38;;;;;;;-2.58;57.38;102415.25;5094077;27;20179;-65
2023/02/06 02:20:16;;;;;;;14.80;7.20;;;;;;;-2.62;57.55;102417.88;5104923;28;20036;-66
2023/02/06 02:22:48;;;;;;;16.02;7.20;;;;;;;-2.56;57.72;102439.78;5047137;28;20035;-66
2023/02/06 02:25:46;;;;;;;13.35;7.65;;;;;;;-2.59;57.63;102428.38;5089773;28;20047;-65
2023/02/06 02:28:20;;;;;;;13.82;6.97;;;;;;;-2.63;58.04;102426.66;5103258;28;20035;-65
2023/02/06 02:31:11;;;;;;;14.95;7.60;;;;;;;-2.60;57.27;102426.66;5095286;28;20442;-66
2023/02/06 02:34:11;;;;;;;12.77;7.03;;;;;;;-2.60;57.76;102434.53;5087351;27;20051;-67
2023/02/06 02:37:02;;;;;;;12.82;6.75;;;;;;;-2.76;58.14;102406.53;5039184;28;20403;-66
2023/02/06 02:39:43;;;;;;;13.38;6.93;;;;;;;-2.63;57.89;102413.50;5091394;28;20035;-66
2023/02/06 02:42:19;;;;;;;14.05;7.50;;;;;;;-2.78;57.89;102398.63;5094038;28;20032;-65
2023/02/06 02:44:53;;;;;;;13.15;7.32;;;;;;;-2.85;57.60;102388.13;5101483;28;20043;-65
2023/02/06 02:47:23;;;;;;;14.57;7.85;;;;;;;-2.71;58.33;102429.25;5097237;28;20549;-66
2023/02/06 02:49:49;;;;;;;14.52;7.93;;;;;;;-2.84;58.79;102416.16;5100099;28;20150;-67
2023/02/06 02:52:15;;;;;;;14.40;7.53;;;;;;;-2.70;57.88;102430.16;5079849;28;20114;-66
2023/02/06 02:54:40;;;;;;;15.57;7.72;;;;;;;-2.88;58.23;102404.78;5089459;28;20024;-67
2023/02/06 02:57:15;;;;;;;15.13;8.57;;;;;;;-2.87;58.05;102411.75;5092483;28;20038;-67
2023/02/06 02:59:45;;;;;;;18.02;7.93;;;;;;;-2.97;58.23;102399.50;5100894;27;20034;-67
2023/02/06 03:02:18;;;;;;;15.30;7.63;;;;;;;-3.01;58.78;102403.00;5086173;28;20070;-65
2023/02/06 03:05:04;;;;;;;16.50;7.97;;;;;;;-2.82;58.89;102431.03;5075648;28;20027;-67
2023/02/06 03:07:44;;;;;;;17.02;8.30;;;;;;;-2.86;58.78;102431.03;5101468;27;20068;-66
2023/02/06 03:10:20;;;;;;;16.83;7.78;;;;;;;-2.88;59.10;102433.66;5091108;28;20032;-66
2023/02/06 03:12:56;;;;;;;15.02;7.95;;;;;;;-3.00;58.49;102406.53;5091395;28;20541;-66
2023/02/06 03:15:52;;;;;;;13.63;8.15;;;;;;;-2.85;58.87;102443.25;5094586;28;20156;-67
2023/02/06 03:18:29;;;;;;;18.52;8.18;;;;;;;-2.91;58.87;102428.38;5094958;28;20109;-71
2023/02/06 03:20:57;;;;;;;17.05;8.32;;;;;;;-3.02;58.97;102430.16;5105682;28;20111;-72
2023/02/06 03:23:29;;;;;;;14.82;7.93;;;;;;;-2.98;59.62;102442.38;5087959;28;20671;-72
2023/02/06 03:25:59;;;;;;;16.17;8.15;;;;;;;-2.95;59.27;102447.66;5095275;28;20043;-72
2023/02/06 03:28:34;;;;;;;15.38;6.95;;;;;;;-2.94;58.96;102445.88;5102884;28;20035;-71
2023/02/06 03:31:04;;;;;;;18.02;8.18;;;;;;;-2.94;59.45;102446.75;5098943;28;20027;-72
2023/02/06 03:33:35;;;;;;;16.25;7.40;;;;;;;-3.00;59.47;102435.41;5089756;28;20048;-72
2023/02/06 03:36:02;;;;;;;14.00;7.60;;;;;;;-3.00;59.46;102432.78;5097306;28;20043;-71
2023/02/06 03:38:28;;;;;;;16.92;7.50;;;;;;;-3.03;59.62;102448.50;5084792;28;20575;-71
2023/02/06 03:40:56;;;;;;;15.55;7.60;;;;;;;-3.06;59.50;102430.13;5072225;28;20122;-71
2023/02/06 03:43:26;;;;;;;14.73;8.05;;;;;;;-3.07;59.50;102438.88;5102876;28;20020;-72
2023/02/06 03:45:59;;;;;;;15.10;7.05;;;;;;;-3.14;59.38;102444.97;5102483;28;20036;-71
2023/02/06 03:48:34;;;;;;;13.93;6.50;;;;;;;-3.08;60.15;102445.00;5090797;28;20060;-71
2023/02/06 03:51:08;;;;;;;15.57;7.75;;;;;;;-3.08;60.19;102459.00;5098670;28;20119;-71
2023/02/06 03:53:34;;;;;;;;;;;;;;;-3.07;60.19;102460.75;5092523;28;21065;-71
2023/02/06 03:56:08;;;;;;;15.93;7.65;;;;;;;-3.07;59.37;102454.59;5089522;28;19912;-71
2023/02/06 03:58:33;;;;;;;;;;;;;;;-3.07;59.82;102455.50;5094877;28;20063;-71
2023/02/06 04:01:01;;;;;;;16.33;7.53;;;;;;;-3.17;59.48;102443.22;5089803;28;19930;-71
2023/02/06 04:03:27;;;;;;;14.90;7.72;;;;;;;-3.13;59.59;102450.22;5102062;28;20522;-71
2023/02/06 04:05:52;;;;;;;14.63;8.02;;;;;;;-3.15;59.45;102440.63;5078747;28;20047;-71
2023/02/06 04:08:18;;;;;;;14.55;7.57;;;;;;;-3.23;59.69;102432.72;5086763;28;20031;-71
2023/02/06 04:10:43;;;;;;;15.13;7.78;;;;;;;-3.14;59.44;102447.59;5100562;28;20031;-71
2023/02/06 04:13:09;;;;;;;15.00;8.15;;;;;;;-3.24;59.61;102425.72;5102116;28;20023;-71
2023/02/06 04:15:34;;;;;;;14.43;8.13;;;;;;;-3.19;59.82;102444.13;5087186;28;20508;-71
2023/02/06 04:18:00;;;;;;;16.25;7.60;;;;;;;-3.15;60.40;102441.50;5093273;28;20032;-70
2023/02/06 04:20:26;;;;;;;14.20;7.63;;;;;;;-3.21;60.07;102438.88;5091887;28;20027;-71
2023/02/06 04:22:51;;;;;;;16.10;8.02;;;;;;;-3.21;59.92;102440.59;5096641;28;20073;-71
2023/02/06 04:25:17;;;;;;;12.65;7.40;;;;;;;-3.25;60.46;102433.59;5091172;28;20110;-66
2023/02/06 04:27:42;;;;;;;17.05;8.48;;;;;;;-3.77;60.21;102353.91;5097414;28;20062;-66
2023/02/06 04:30:08;;;;;;;17.83;7.75;;;;;;;-3.28;60.06;102444.97;5091554;28;20046;-66
2023/02/06 04:32:34;;;;;;;17.00;7.72;;;;;;;-3.38;60.37;102439.69;5085465;28;20511;-66
2023/02/06 04:34:59;;;;;;;14.23;7.53;;;;;;;-3.38;60.82;102453.69;5100982;27;20028;-66
2023/02/06 04:37:24;;;;;;;16.95;8.18;;;;;;;-3.54;60.52;102427.41;5098297;27;20039;-70
2023/02/06 04:39:50;;;;;;;19.02;9.73;;;;;;;-3.47;60.67;102444.91;5105078;28;20024;-66
2023/02/06 04:42:15;;;;;;;17.52;8.57;;;;;;;-3.48;60.82;102445.78;5100178;28;20024;-66
2023/02/06 04:44:41;;;;;;;14.88;8.13;;;;;;;-3.43;60.78;102462.41;5091494;28;20027;-66
2023/02/06 04:47:06;;;;;;;16.20;8.05;;;;;;;-3.54;61.67;102456.25;5090818;27;20089;-66
2023/02/06 04:49:32;;;;;;;13.27;7.78;;;;;;;-3.51;61.17;102458.88;5094225;28;20134;-65
2023/02/06 04:51:58;;;;;;;17.98;9.20;;;;;;;-3.58;61.45;102464.97;5079617;28;20031;-65
2023/02/06 04:54:23;;;;;;;22.33;10.65;;;;;;;-3.67;61.37;102451.84;5105950;27;20456;-66
2023/02/06 04:56:48;;;;;;;18.73;8.88;;;;;;;-3.66;61.33;102469.31;5102785;28;20019;-66
2023/02/06 04:59:14;;;;;;;18.65;9.07;;;;;;;-3.76;61.99;102459.66;5090639;28;20105;-71
2023/02/06 05:01:40;;;;;;;19.83;8.95;;;;;;;-3.74;61.96;102469.25;5093480;28;20115;-71
2023/02/06 05:04:06;;;;;;;21.67;9.23;;;;;;;-3.75;62.08;102467.53;5091701;27;20032;-66
2023/02/06 05:06:32;;;;;;;21.10;9.73;;;;;;;-3.90;62.33;102451.72;5101054;27;20040;-66
2023/02/06 05:08:58;;;;;;;22.63;10.18;;;;;;;-3.80;62.60;102421.19;5102506;27;20019;-66
2023/02/06 05:11:24;;;;;;;21.35;9.85;;;;;;;-3.84;62.78;102422.06;5097569;28;20119;-66
2023/02/06 05:13:50;;;;;;;20.50;9.63;;;;;;;-3.82;62.54;102444.78;5093949;27;20024;-66
2023/02/06 05:16:16;;;;;;;20.15;10.02;;;;;;;-4.01;63.41;102428.94;5079349;28;20056;-65
2023/02/06 05:18:45;;;;;;;18.17;9.40;;;;;;;-4.00;63.72;102449.06;5076363;28;20395;-66
2023/02/06 05:21:12;;;;;;;18.88;9.77;;;;;;;-4.05;63.75;102456.91;5081229;28;20061;-66
2023/02/06 05:23:38;;;;;;;17.58;9.20;;;;;;;-4.24;64.42;102444.56;5090011;28;20507;-65
2023/02/06 05:26:03;;;;;;;20.50;10.50;;;;;;;-4.14;64.15;102462.06;5106128;27;20110;-65
2023/02/06 05:28:32;;;;;;;19.13;10.93;;;;;;;-4.19;64.83;102458.56;5104839;27;20475;-65
2023/02/06 05:31:01;;;;;;;20.70;11.27;;;;;;;-4.48;64.67;102415.59;5098550;28;20027;-65
2023/02/06 05:33:26;;;;;;;27.42;11.43;;;;;;;-4.27;65.04;102464.59;5100003;27;20038;-66
2023/02/06 05:35:52;;;;;;;25.52;12.10;;;;;;;-4.31;65.66;102474.19;5099759;27;20043;-66
2023/02/06 05:38:18;;;;;;;27.23;13.38;;;;;;;-4.33;65.50;102478.53;5086365;28;20024;-65
2023/02/06 05:40:43;;;;;;;26.65;13.15;;;;;;;-4.43;65.61;102463.63;5092349;28;20123;-66
2023/02/06 05:43:09;;;;;;;31.65;13.90;;;;;;;-4.38;65.91;102482.88;5090559;27;20019;-65
2023/02/06 05:45:35;;;;;;;29.50;13.80;;;;;;;-4.59;66.00;102453.03;5097041;28;20668;-65
2023/02/06 05:48:00;;;;;;;26.58;13.88;;;;;;;-4.62;66.35;102464.34;5093587;28;20024;-66
2023/02/06 05:50:26;;;;;;;32.95;15.30;;;;;;;-4.71;67.09;102456.41;5074263;28;20055;-66
2023/02/06 05:52:51;;;;;;;31.15;14.05;;;;;;;-4.70;67.43;102466.03;5068669;28;20032;-65
2023/02/06 05:55:17;;;;;;;30.13;14.57;;;;;;;-4.73;67.92;102458.16;5095061;28;20147;-65
2023/02/06 05:57:43;;;;;;;29.80;14.80;;;;;;;-4.62;67.72;102472.19;5088231;28;23427;-65
2023/02/06 06:00:10;;;;;;;34.35;15.23;;;;;;;-4.75;67.92;102462.50;5090046;28;20622;-66
2023/02/06 06:02:36;;;;;;;32.85;14.20;;;;;;;-4.72;67.96;102459.91;5088144;27;20032;-66
2023/02/06 06:05:01;;;;;;;37.50;17.27;;;;;;;-4.77;68.26;102456.38;5096270;28;20037;-66
2023/02/06 06:07:27;;;;;;;41.53;19.42;;;;;;;-4.85;68.13;102439.72;5096170;28;20036;-66
2023/02/06 06:09:52;;;;;;;41.60;18.73;;;;;;;-4.70;68.06;102466.03;5089050;27;20048;-65
2023/02/06 06:12:18;;;;;;;28.73;15.13;;;;;;;-4.58;68.24;102484.44;5089214;28;20096;-66
2023/02/06 06:14:43;;;;;;;29.40;13.32;;;;;;;-4.62;68.04;102477.44;5102122;27;20456;-66
2023/02/06 06:17:09;;;;;;;29.63;13.27;;;;;;;-4.72;68.27;102463.41;5094237;28;20074;-67
2023/02/06 06:19:34;;;;;;;27.42;14.07;;;;;;;-4.74;68.62;102459.03;5097733;28;20113;-66
2023/02/06 06:22:00;;;;;;;35.97;14.32;;;;;;;-4.68;68.49;102467.78;5101092;28;20034;-66
2023/02/06 06:24:26;;;;;;;31.65;13.23;;;;;;;-4.65;68.35;102461.69;5102426;28;20016;-66
2023/02/06 06:26:51;;;;;;;30.17;12.75;;;;;;;-4.71;68.22;102444.22;5097059;27;20024;-66
2023/02/06 06:29:17;;;;;;;26.45;12.77;;;;;;;-4.55;68.03;102476.63;5092719;28;20039;-66
2023/02/06 06:31:43;;;;;;;26.60;12.70;;;;;;;-4.63;68.05;102459.97;5101437;28;20107;-66
2023/02/06 06:34:08;;;;;;;29.15;13.25;;;;;;;-4.61;68.04;102468.75;5087288;27;20038;-65
2023/02/06 06:36:34;;;;;;;28.45;15.18;;;;;;;-4.62;68.76;102466.97;5094755;28;20588;-66
2023/02/06 06:38:59;;;;;;;37.08;14.23;;;;;;;-4.62;69.18;102464.34;5089849;28;20038;-66
2023/02/06 06:41:25;;;;;;;30.42;14.93;;;;;;;-4.58;69.38;102473.13;5092109;28;20027;-66
2023/02/06 06:43:53;;;;;;;26.65;12.40;;;;;;;-4.60;69.11;102462.63;5096394;28;20117;-65
2023/02/06 06:46:18;;;;;;;27.58;12.40;;;;;;;-4.57;69.26;102465.28;5089141;28;20031;-66
2023/02/06 06:48:44;;;;;;;26.55;13.20;;;;;;;-4.52;69.81;102471.41;5083951;27;20027;-71
2023/02/06 06:51:09;;;;;;;29.27;12.45;;;;;;;-4.53;69.41;102469.66;5087917;27;20168;-76
2023/02/06 06:53:38;;;;;;;26.60;12.25;;;;;;;-4.49;69.77;102470.56;5076342;28;20123;-71
2023/02/06 06:56:11;;;;;;;23.60;11.52;;;;;;;-4.38;69.84;102471.50;5082959;28;20075;-71
2023/02/06 06:58:36;;;;;;;29.92;13.25;;;;;;;-4.41;69.74;102461.03;5089790;28;20027;-70
2023/02/06 07:01:02;;;;;;;24.52;11.90;;;;;;;-4.34;70.04;102465.44;5089492;28;20027;-71
2023/02/06 07:03:27;;;;;;;26.73;12.90;;;;;;;-4.29;69.33;102459.34;5103222;28;20028;-66
2023/02/06 07:05:53;;;;;;;21.98;10.80;;;;;;;-4.19;69.06;102450.72;5077840;28;20024;-66
2023/02/06 07:08:18;;;;;;;22.08;11.30;;;;;;;-4.06;67.99;102460.41;5098223;28;20039;-66
2023/02/06 07:10:44;;;;;;;22.42;11.73;;;;;;;-4.09;67.85;102451.63;5102562;28;20032;-66
2023/02/06 07:13:09;;;;;;;20.65;10.05;;;;;;;-4.09;67.88;102444.66;5104305;28;20055;-66
2023/02/06 07:15:35;;;;;;;21.70;9.95;;;;;;;-4.13;67.67;102421.91;5094495;28;20124;-67
2023/02/06 07:18:00;;;;;;;23.95;10.13;;;;;;;-3.88;68.12;102463.09;5096905;28;20028;-66
2023/02/06 07:20:26;;;;;;;23.45;11.43;;;;;;;-3.84;67.91;102462.22;5100725;28;20043;-66
2023/02/06 07:22:52;;;;;;;18.85;10.02;;;;;;;-3.78;68.86;102472.75;5092152;28;20024;-66
2023/02/06 07:25:19;;;;;;;23.63;11.13;;;;;;;-3.69;68.60;102475.41;5095529;28;20046;-67
2023/02/06 07:27:45;;;;;;;21.33;10.45;;;;;;;-3.58;67.78;102471.09;5083989;28;20027;-66
2023/02/06 07:30:11;;;;;;;22.75;11.68;;;;;;;-3.45;66.49;102485.13;5104415;28;20031;-66
2023/02/06 07:32:37;;;;;;;19.77;10.55;;;;;;;-3.44;66.42;102489.50;5105811;28;20773;-66
2023/02/06 07:35:04;;;;;;;20.42;10.90;;;;;;;-3.78;66.88;102433.44;5099985;28;20043;-67
2023/02/06 07:37:29;;;;;;;23.23;9.70;;;;;;;-3.43;66.33;102449.28;5088858;28;20028;-68
2023/02/06 07:39:54;;;;;;;19.90;10.30;;;;;;;-3.23;65.19;102458.97;5087061;28;20166;-66
2023/02/06 07:42:20;;;;;;;18.85;11.05;;;;;;;-3.14;65.42;102471.22;5090811;28;20117;-66
2023/02/06 07:44:45;;;;;;;21.90;10.45;;;;;;;-3.04;64.98;102465.09;5107670;28;20035;-67
2023/02/06 07:47:11;;;;;;;20.95;10.75;;;;;;;-3.01;65.01;102473.00;5101022;28;20039;-66
2023/02/06 07:49:36;;;;;;;19.00;10.02;;;;;;;-3.14;65.16;102451.13;5091980;28;20043;-66
2023/02/06 07:52:02;;;;;;;22.10;11.00;;;;;;;-2.81;64.37;102477.41;5070247;28;20028;-66
2023/02/06 07:54:27;;;;;;;18.27;9.18;;;;;;;-2.72;64.68;102480.03;5103985;28;20113;-66
2023/02/06 07:56:53;;;;;;;21.70;10.23;;;;;;;-2.75;64.44;102473.91;5104164;28;20100;-65
2023/02/06 07:59:18;;;;;;;17.92;9.38;;;;;;;-2.59;63.80;102484.44;5103234;28;20040;-66
2023/02/06 08:01:44;;;;;;;16.58;8.88;;;;;;;-2.63;63.55;102459.03;5074388;28;20032;-66
2023/02/06 08:04:10;;;;;;;21.63;9.60;;;;;;;-2.46;63.57;102462.53;5097244;28;20020;-67
2023/02/06 08:06:38;;;;;;;21.73;10.43;;;;;;;-2.33;63.40;102480.03;5086461;28;20047;-66
2023/02/06 08:09:04;;;;;;;15.35;9.35;;;;;;;-2.25;62.72;102477.41;5090531;28;20032;-67
2023/02/06 08:11:30;;;;;;;18.15;8.63;;;;;;;-2.17;62.67;102464.25;5091033;28;20039;-67
2023/02/06 08:13:56;;;;;;;16.00;9.43;;;;;;;-2.03;62.25;102489.63;5093574;28;20531;-67
2023/02/06 08:16:22;;;;;;;21.38;11.18;;;;;;;-2.03;62.24;102470.34;5093039;28;20048;-67
2023/02/06 08:18:48;;;;;;;22.55;10.38;;;;;;;-1.86;61.99;102487.84;5101475;28;20031;-67
2023/02/06 08:21:19;;;;;;;16.25;8.38;;;;;;;-1.68;59.74;102484.28;5104546;28;20055;-67
2023/02/06 08:23:45;;;;;;;14.13;8.55;;;;;;;-1.62;59.46;102489.53;5074865;28;20364;-67
2023/02/06 08:26:15;;;;;;;15.73;8.25;;;;;;;-1.53;59.51;102498.25;5092297;28;20471;-67
2023/02/06 08:28:42;;;;;;;17.63;9.60;;;;;;;-1.42;58.78;102498.22;5096164;28;20085;-67
2023/02/06 08:31:30;;;;;;;17.55;8.70;;;;;;;-1.35;58.92;102494.66;5095512;28;20577;-67
2023/02/06 08:33:55;;;;;;;18.88;8.73;;;;;;;-1.34;57.95;102477.97;5090270;28;20515;-67
2023/02/06 08:36:22;;;;;;;15.32;8.13;;;;;;;-1.27;57.50;102482.31;5101026;28;20080;-66
2023/02/06 08:38:49;;;;;;;18.30;9.75;;;;;;;-1.24;57.46;102477.94;5104542;28;20110;-67
2023/02/06 08:41:30;;;;;;;16.23;8.73;;;;;;;-1.16;57.60;102489.28;5109620;28;20429;-67
2023/02/06 08:43:58;;;;;;;16.40;8.52;;;;;;;-1.24;58.11;102458.63;5089380;28;20058;-66
2023/02/06 08:46:27;;;;;;;20.67;9.00;;;;;;;-1.06;56.74;102490.97;5095507;28;20027;-66
2023/02/06 08:48:57;;;;;;;18.52;8.65;;;;;;;-0.98;56.70;102486.56;5107194;28;20633;-66
2023/02/06 08:51:26;;;;;;;16.00;8.15;;;;;;;-1.09;56.23;102463.81;5107074;28;20376;-66
2023/02/06 08:53:54;;;;;;;17.23;8.57;;;;;;;-1.08;56.15;102455.00;5091883;28;20038;-66
2023/02/06 08:56:20;;;;;;;18.38;9.43;;;;;;;-0.90;56.38;102465.44;5106439;28;20089;-66
2023/02/06 08:58:45;;;;;;;18.17;7.43;;;;;;;-0.86;55.95;102461.91;5091500;28;20049;-68
2023/02/06 09:01:15;;;;;;;21.35;9.07;;;;;;;-0.69;56.08;102484.59;5109692;28;20472;-67
2023/02/06 09:03:41;;;;;;;24.08;9.98;;;;;;;-0.71;55.72;102470.53;5099197;28;20421;-67
2023/02/06 09:06:07;;;;;;;19.05;8.48;;;;;;;-0.72;55.23;102466.19;5087646;28;20510;-66
2023/02/06 09:08:33;;;;;;;14.63;7.93;;;;;;;-0.65;55.12;102456.44;5089092;28;20392;-66
2023/02/06 09:11:09;;;;;;;14.10;8.45;;;;;;;-0.49;55.08;102481.78;5105189;28;20035;-67
2023/02/06 09:13:36;;;;;;;16.23;8.25;;;;;;;-0.50;54.86;102469.50;5108992;28;20020;-67
2023/02/06 09:16:02;;;;;;;20.73;8.38;;;;;;;-0.73;54.11;102418.75;5110079;28;20040;-68
2023/02/06 09:18:28;;;;;;;14.55;7.93;;;;;;;-0.33;54.30;102488.69;5091156;28;20558;-67
2023/02/06 09:21:10;;;;;;;17.08;8.32;;;;;;;-0.35;54.53;102480.78;5091163;28;20036;-68
2023/02/06 09:23:41;;;;;;;17.85;8.52;;;;;;;-0.35;53.73;102472.03;5089007;28;20051;-67
2023/02/06 09:26:06;;;;;;;16.15;8.68;;;;;;;-0.28;53.98;102484.25;5089716;28;20020;-67
2023/02/06 09:28:33;;;;;;;21.33;9.25;;;;;;;-0.31;54.04;102452.66;5090922;28;20047;-67
2023/02/06 09:30:58;;;;;;;14.55;8.43;;;;;;;-0.42;54.12;102451.88;5096824;28;20039;-67
2023/02/06 09:33:24;;;;;;;17.92;8.77;;;;;;;-0.26;54.47;102470.16;5100209;28;20017;-67
2023/02/06 09:36:07;;;;;;;14.02;8.15;;;;;;;-0.12;53.99;102483.22;5086742;28;20102;-67
2023/02/06 09:38:34;;;;;;;14.23;7.50;;;;;;;-0.04;53.76;102481.38;5079861;28;20486;-68
2023/02/06 09:41:02;;;;;;;14.68;8.25;;;;;;;0.02;54.54;102473.41;5069742;28;20085;-67
2023/02/06 09:43:30;;;;;;;14.98;9.00;;;;;;;-0.04;54.22;102455.88;5097501;28;20069;-67
2023/02/06 09:46:02;;;;;;;15.65;8.70;;;;;;;-0.03;54.43;102451.50;5104041;28;20031;-68
2023/02/06 09:48:31;;;;;;;17.35;8.77;;;;;;;0.13;53.72;102455.72;5100693;28;20474;-67
2023/02/06 09:51:38;;;;;;;16.73;9.43;;;;;;;0.22;53.49;102471.41;5084087;28;20485;-66
2023/02/06 09:54:10;;;;;;;17.27;9.85;;;;;;;0.27;53.57;102471.38;5050525;28;20122;-67
2023/02/06 09:56:40;;;;;;;18.23;9.77;;;;;;;0.34;53.64;102470.41;5099088;28;21098;-67
2023/02/06 09:59:32;;;;;;;19.40;9.57;;;;;;;0.38;53.62;102458.94;5099908;28;20027;-66
2023/02/06 10:02:09;;;;;;;16.85;8.65;;;;;;;0.47;54.11;102461.44;5082181;28;20035;-67
2023/02/06 10:04:58;;;;;;;15.93;9.40;;;;;;;0.57;53.31;102466.59;5101476;28;20032;-66
2023/02/06 10:07:44;;;;;;;20.60;9.48;;;;;;;0.46;53.24;102418.34;5088268;28;20048;-66
2023/02/06 10:10:16;;;;;;;17.98;9.35;;;;;;;0.74;53.30;102438.19;5095197;28;20039;-66
2023/02/06 10:12:46;;;;;;;16.92;9.00;;;;;;;0.87;52.68;102429.19;5096712;28;20051;-67
2023/02/06 10:15:21;;;;;;;15.60;8.43;;;;;;;0.96;52.67;102409.69;5094239;28;20388;-67
2023/02/06 10:18:01;;;;;;;12.95;7.80;;;;;;;1.08;52.18;102418.31;5052761;28;20044;-67
2023/02/06 10:20:44;;;;;;;13.00;7.88;;;;;;;1.31;51.17;102431.16;5055997;28;20055;-67
2023/02/06 10:23:16;;;;;;;14.40;8.38;;;;;;;1.33;51.18;102414.38;5056790;28;20909;-67
2023/02/06 10:25:52;;;;;;;16.63;8.55;;;;;;;1.31;51.16;102412.66;5058055;28;20435;-67
2023/02/06 10:28:26;;;;;;;19.77;9.20;;;;;;;1.43;50.62;102428.31;5061868;28;20113;-72
2023/02/06 10:31:12;;;;;;;14.00;8.32;;;;;;;1.43;51.24;102423.91;5061027;28;20408;-72
2023/02/06 10:33:51;;;;;;;13.23;7.97;;;;;;;1.36;51.04;102408.16;5065757;28;20694;-72
2023/02/06 10:36:35;;;;;;;14.07;8.38;;;;;;;1.49;51.00;102423.78;5061669;28;20036;-72
2023/02/06 10:39:22;;;;;;;14.93;7.93;;;;;;;1.47;50.69;102422.06;5062168;28;20032;-73
2023/02/06 10:42:06;;;;;;;16.10;9.23;;;;;;;1.50;50.92;102411.44;5063141;28;20161;-73
2023/02/06 10:45:01;;;;;;;12.73;8.02;;;;;;;1.43;50.85;102399.22;5062863;28;20028;-73
2023/02/06 10:47:35;;;;;;;12.15;7.45;;;;;;;1.52;50.07;102399.94;5058491;28;20033;-72
2023/02/06 10:50:35;;;;;;;13.45;8.30;;;;;;;1.54;50.52;102399.91;5065248;28;20020;-73
2023/02/06 10:53:23;;;;;;;14.50;7.85;;;;;;;1.57;50.22;102413.06;5058206;28;20040;-73
2023/02/06 10:55:56;;;;;;;16.45;8.75;;;;;;;1.48;50.40;102373.59;5061233;28;21592;-73
2023/02/06 10:58:27;;;;;;;14.63;7.93;;;;;;;1.60;50.41;102400.69;5062827;28;20024;-73
2023/02/06 11:00:54;;;;;;;13.30;8.02;;;;;;;1.60;50.59;102392.75;5064161;28;20392;-74
2023/02/06 11:03:24;;;;;;;14.43;8.52;;;;;;;1.73;50.00;102403.97;5065455;28;20056;-73
2023/02/06 11:05:51;;;;;;;15.02;8.35;;;;;;;1.60;49.55;102379.53;5061407;28;22414;-73
2023/02/06 11:08:32;;;;;;;12.98;8.25;;;;;;;1.55;49.46;102362.84;5061368;28;20041;-73
2023/02/06 11:11:16;;;;;;;15.35;8.48;;;;;;;1.67;49.29;102375.88;5059793;28;20524;-73
2023/02/06 11:13:43;;;;;;;12.50;7.18;;;;;;;1.68;49.62;102374.94;5063688;28;20512;-73
2023/02/06 11:16:14;;;;;;;15.63;8.55;;;;;;;1.75;50.29;102383.66;5077112;28;20047;-73
2023/02/06 11:18:43;;;;;;;13.52;7.32;;;;;;;1.80;49.71;102387.97;5104724;28;20479;-73
2023/02/06 11:21:11;;;;;;;15.48;9.25;;;;;;;1.77;50.43;102377.44;5103753;28;20030;-67
2023/02/06 11:23:37;;;;;;;14.45;8.32;;;;;;;1.73;50.36;102369.56;5082205;28;20032;-67
2023/02/06 11:26:26;;;;;;;12.20;7.68;;;;;;;1.54;50.17;102324.09;5100169;28;20035;-67